LiveATC.Net - Listen to live air traffic control over the Internet!


ICAO: KBLI  IATA: BLI   Airport: Bellingham International Airport
City: Bellingham   State/Province: Washington
Country: United States   Continent: North America
KBLI METAR Weather: KBLI 210353Z 35003KT 10SM CLR 02/M01 A2995 RMK AO2 SLP153 T00221011
KBLI Flight Activity (FlightAware)
KBLI Airport Info   (iFlightPlanner)
KBLI VFR Sectional Chart   (iFlightPlanner) 
KBLI IFR Low Chart   (iFlightPlanner) 

KBLI Tower
Feed Status: UP   Listeners: 1
Listen in your browser - HTML5 player (in browser, HTML5)
Click here to listen with your own player (launches your MP3 player)
KBLI Tower Audio Archives
FacilityFrequency
Bellingham Tower124.900

NOTICE

Unauthorized use prohibited. See LiveATC.net Terms of Service


Find LiveATC Audio Streams


Airport/ARTCC Code

Frequency Search
(e.g., 124.400, 128.75)
Site-wide search
 


Browse LiveATC Feeds
Top 50 LiveATC Feeds
LiveATC Feed Map
Bad Weather Areas

LiveATC FAQ
Offer LiveATC feed
Contact LiveATC.net
Press Inquiries

LiveATC on iPhone
LiveATC on Android

Windows Phone
Windows 8/10

LiveATC Mobile
(Mobile browser)

ATC Audio Archives
Interesting Recordings

LiveATC Forums


Home Page
About LiveATC.net
Make a Donation
Terms of Use
Privacy Policy

Canadian Air Freqs

AIRMETs/SIGMETs

FAA Airport Status
Nat'l Airspace Status
Arrival Demand Charts


Server Software By:
Icecast.org
Liquidsoap